• Join FlightAware (Why Join?)
  • Login
  • US Flag 
05:00AM EST


 

Airport Tracker/Info


-or-


 

Live Flight TrackerFlight Track Log ✈ ASQ5941 ✈ 12-May-2013 ✈ KAVP - KORD

Flight Track Log - Related Links

Times and Time Zones

All times are in EDT time to prevent confusion due to time zone crossing. See the ASQ5941 flight status page for this flight to view local times or setup timezone preferences in your user account.

Time Position Orientation Groundspeed Altitude Reporting Facility
EDT Latitude Longitude Course Direction KTS MPH feet Rate Location/Type
05:04PM 41.2614 -75.7831 210° Southwest 171 197 4,900  Level New York Center
05:05PM 41.2928 -75.8325 310° West 135 155 7,000 2,160 Climbing New York Center
05:06PM 41.4261 -75.9404 315° West  Level FlightAware Approximate
05:06PM 41.3611 -75.8431 353° North 158 182 9,300  Level New York Center
05:07PM 41.4748 -76.0275 315° West  Level FlightAware Approximate
05:07PM 41.4375 -75.8572 352° North 216 249 10,000  Level New York Center
05:08PM 41.5317 -76.1059 312° West  Level FlightAware Approximate
05:08PM 41.5181 -75.8717 352° North 262 302 10,000  Level New York Center
05:09PM 41.5858 -76.1877 307° West  Level FlightAware Approximate
05:09PM 41.5933 -75.9161 336° Northwest 292 336 11,400  Level New York Center
05:10PM 41.6300 -76.0272 294° West 299 344 13,500 1,260 Climbing New York Center
05:11PM 41.6606 -76.1350 291° West 290 334 14,000 240 Climbing New York Center
05:12PM 41.6928 -76.2517 290° West 320 368 14,000 660 Level New York Center
05:13PM 41.7214 -76.3542 291° West 337 388 15,400 1,620 Climbing New York Center
05:14PM 41.7536 -76.4653 291° West 326 375 17,300 1,980 Climbing New York Center
05:15PM 41.7833 -76.5789 289° West 315 362 19,500 1,980 Climbing New York Center
05:16PM 41.8117 -76.6817 290° West 303 349 21,400 1,680 Climbing New York Center
05:17PM 41.8400 -76.7817 291° West 298 343 22,900 960 Climbing New York Center
05:18PM 41.8683 -76.8789 291° West 303 349 23,400 840 Climbing New York Center
05:18PM 41.8789 -76.9239 288° West 305 351 24,000 1,680 Climbing Cleveland Center
05:19PM 41.9092 -77.0311 291° West 305 351 25,500 1,500 Climbing Cleveland Center
05:20PM 41.9397 -77.1439 290° West 305 351 27,100 1,200 Climbing Cleveland Center
05:21PM 41.9700 -77.2483 291° West 305 351 28,000 420 Climbing Cleveland Center
05:22PM 42.0006 -77.3669 289° West 312 359 28,000 300 Level Cleveland Center
05:23PM 42.0331 -77.4883 290° West 333 383 28,600 780 Climbing Cleveland Center
05:24PM 42.0653 -77.6069 290° West 340 391 29,600 960 Climbing Cleveland Center
05:25PM 42.0997 -77.7314 290° West 340 391 30,600 960 Climbing Cleveland Center
05:26PM 42.1300 -77.8561 288° West 346 398 31,600 660 Climbing Cleveland Center
05:27PM 42.1594 -77.9642 290° West 355 409 32,000 180 Climbing Cleveland Center
05:28PM 42.1939 -78.1028 289° West 362 417 32,000  Level Cleveland Center
05:29PM 42.2300 -78.2417 289° West 375 432 32,000  Level Cleveland Center
05:30PM 42.2642 -78.3778 289° West 388 447 32,000 360 Level Cleveland Center
05:31PM 42.3000 -78.5142 290° West 388 447 32,800 600 Climbing Cleveland Center
05:32PM 42.3336 -78.6450 289° West 382 440 33,300 600 Climbing Cleveland Center
05:33PM 42.3647 -78.7733 288° West 376 433 34,000 300 Climbing Cleveland Center
05:34PM 42.3981 -78.9131 288° West 360 414 34,000  Level Cleveland Center
05:35PM 42.4333 -79.0444 290° West 365 420 34,000  Level Cleveland Center
05:36PM 42.4661 -79.1731 289° West 378 435 34,100 480 Climbing Cleveland Center
05:37PM 42.4950 -79.3161 285° West 390 449 35,000 900 Climbing Cleveland Center
05:38PM 42.5028 -79.4539 274° West 390 449 35,900 480 Climbing Cleveland Center
05:39PM 42.5061 -79.5975 272° West 385 443 36,000  Climbing Cleveland Center
05:40PM 42.5133 -79.7439 274° West 385 443 36,000  Level Cleveland Center
05:41PM 42.5250 -79.8958 276° West 395 455 36,000  Level Cleveland Center
05:42PM 42.5258 -80.0619 270° West 410 472 36,000  Level Cleveland Center
05:43PM 42.5325 -80.2142 273° West 410 472 36,000  Level Cleveland Center
05:44PM 42.5392 -80.3633 274° West 410 472 36,000  Level Cleveland Center
05:45PM 42.5456 -80.5156 273° West 405 466 36,000  Level Cleveland Center
05:46PM 42.5519 -80.6619 273° West 405 466 36,000  Level Cleveland Center
05:47PM 42.5581 -80.8144 273° West 405 466 36,000  Level Cleveland Center
05:48PM 42.5639 -80.9639 273° West 400 460 36,000  Level Cleveland Center
05:49PM 42.5694 -81.1161 273° West 407 468 36,000  Level Cleveland Center
05:50PM 42.5728 -81.2628 272° West 402 463 36,000  Level Cleveland Center
05:51PM 42.5781 -81.4122 273° West 402 463 36,000  Level Cleveland Center
05:52PM 42.5978 -81.5450 281° West 397 457 36,000  Level Cleveland Center
05:53PM 42.6236 -81.6919 283° West 402 463 36,000  Level Cleveland Center
05:54PM 42.6575 -81.8536 286° West 402 463 36,000  Level Cleveland Center
05:55PM 42.6786 -82.0008 281° West 402 463 36,000  Level Cleveland Center
05:56PM 42.7039 -82.1483 283° West 402 463 36,000  Level Cleveland Center
05:57PM 42.7286 -82.3017 282° West 402 463 36,000  Level Cleveland Center
05:58PM 42.7536 -82.4494 283° West 407 468 36,000  Level Cleveland Center
05:59PM 42.7803 -82.6000 284° West 407 468 36,000  Level Cleveland Center
06:00PM 42.8044 -82.7481 283° West 413 475 36,000  Level Cleveland Center
06:01PM 42.8289 -82.8961 283° West 413 475 36,000  Level Cleveland Center
06:02PM 42.8528 -83.0442 282° West 408 470 36,000  Level Cleveland Center
06:03PM 42.8747 -83.1811 282° West 413 475 36,000  Level Cleveland Center
06:04PM 42.8986 -83.3294 282° West 413 475 36,000  Level Cleveland Center
06:05PM 42.9219 -83.4808 282° West 413 475 36,000 -300 Level Cleveland Center
06:06PM 42.9472 -83.6294 283° West 413 475 35,400 -780 Descending Cleveland Center
06:07PM 42.9600 -83.7778 277° West 413 475 34,500 -960 Descending Cleveland Center
06:08PM 42.9475 -83.9247 263° West 402 463 33,500 -1,200 Descending Cleveland Center
06:09PM 42.9325 -84.0769 262° West 402 463 32,200 -780 Descending Cleveland Center
06:10PM 42.9172 -84.2322 262° West 409 471 32,000 -120 Descending Cleveland Center
06:12PM 42.8908 -84.5128 263° West 405 466 32,000  Level Chicago Center
06:13PM 42.8761 -84.6608 262° West 398 458 32,000  Level Chicago Center
06:14PM 42.8608 -84.8081 262° West 395 455 32,000  Level Chicago Center
06:15PM 42.8461 -84.9533 262° West 389 448 32,000  Level Chicago Center
06:16PM 42.8300 -85.0986 261° West 388 447 32,000 -300 Level Chicago Center
06:17PM 42.8136 -85.2503 262° West 400 460 31,400 -840 Descending Chicago Center
06:18PM 42.7931 -85.4322 261° West 405 466 30,300 -840 Descending Chicago Center
06:19PM 42.7728 -85.5789 259° West 398 458 29,700 -1,260 Descending Chicago Center
06:21PM 42.7467 -85.7189 256° West 386 444 27,700 -1,980 Descending Chicago Center
06:22PM 42.7239 -85.8464 256° West 358 412 25,600 -2,040 Descending Chicago Center
06:23PM 42.7014 -85.9697 256° West 340 391 23,600 -2,100 Descending Chicago Center
06:24PM 42.6772 -86.1008 256° West 347 399 21,300 -1,800 Descending Chicago Center
06:25PM 42.6536 -86.2325 256° West 356 410 20,000 -660 Descending Chicago Center
06:26PM 42.6294 -86.3550 255° West 340 391 20,000 -660 Level Chicago Center
06:27PM 42.6011 -86.5075 256° West 345 397 18,700 -1,560 Descending Chicago Center
06:28PM 42.5778 -86.6306 256° West 340 391 16,800 -1,860 Descending Chicago Center
06:29PM 42.5544 -86.7550 256° West 340 391 14,900 -1,920 Descending Chicago Center
06:30PM 42.5219 -86.8703 249° West 330 380 12,900 -1,800 Descending Chicago Center
06:31PM 42.4903 -86.9856 250° West 326 375 11,200 -1,440 Descending Chicago Center
06:32PM 42.4586 -87.0928 248° West 309 356 10,000 -1,020 Descending Chicago Center
06:33PM 42.4289 -87.2081 251° West 274 315 9,200 -1,260 Descending Chicago Center
06:34PM 42.4033 -87.2972 249° West 258 297 7,400 -1,500 Descending Chicago Center
06:35PM 42.3808 -87.3803 250° West 240 276 6,100 -720 Descending Chicago Center
06:36PM 42.3544 -87.4761 250° West 241 277 6,000 -60 Descending Chicago Center
06:37PM 42.2933 -87.5164 206° Southwest 258 297 6,000  Level Chicago Center
06:38PM 42.2258 -87.5547 203° Southwest 263 303 6,000 -60 Level Chicago Center
06:39PM 42.1578 -87.5908 201° Southwest 264 304 5,900 -480 Descending Chicago Center
06:39PM 42.1167 -87.6167 205° Southwest 265 305 5,400 -1,200 Descending Chicago TRACON
06:40PM 42.0500 -87.6500 200° South 257 296 4,300 -1,200 Descending Chicago TRACON
06:41PM 42.0167 -87.7167 236° Southwest 211 243 3,000 -840 Descending Chicago TRACON
06:42PM 42.0000 -87.7667 246° West 168 193 2,800 -660 Descending Chicago TRACON
06:43PM 42.0000 -87.8167 270° West 147 169 1,800 -900 Descending Chicago TRACON
06:44PM 42.0000 -87.8667 270° West 138 159 1,100 -720 Descending Chicago TRACON